sensor_id;sensor_type;location;lat;lon;timestamp;P1;durP1;ratioP1;P2;durP2;ratioP2
49824;SDS011;35714;55.708;37.478;2022-09-13T00:00:57;5.78;;;3.28;;
49824;SDS011;35714;55.708;37.478;2022-09-13T00:03:23;6.28;;;3.33;;
49824;SDS011;35714;55.708;37.478;2022-09-13T00:05:49;7.45;;;3.10;;
49824;SDS011;35714;55.708;37.478;2022-09-13T00:08:15;5.75;;;2.92;;
49824;SDS011;35714;55.708;37.478;2022-09-13T00:10:42;6.30;;;3.10;;
49824;SDS011;35714;55.708;37.478;2022-09-13T00:13:09;4.95;;;2.85;;
49824;SDS011;35714;55.708;37.478;2022-09-13T00:15:36;5.95;;;3.58;;
49824;SDS011;35714;55.708;37.478;2022-09-13T00:18:06;6.03;;;3.28;;
49824;SDS011;35714;55.708;37.478;2022-09-13T00:20:32;7.55;;;3.13;;
49824;SDS011;35714;55.708;37.478;2022-09-13T00:22:57;5.38;;;2.80;;
49824;SDS011;35714;55.708;37.478;2022-09-13T00:25:23;5.25;;;2.88;;
49824;SDS011;35714;55.708;37.478;2022-09-13T00:27:48;5.97;;;2.88;;
49824;SDS011;35714;55.708;37.478;2022-09-13T00:30:14;6.07;;;3.47;;
49824;SDS011;35714;55.708;37.478;2022-09-13T00:32:40;5.30;;;2.33;;
49824;SDS011;35714;55.708;37.478;2022-09-13T00:35:06;5.88;;;3.08;;
49824;SDS011;35714;55.708;37.478;2022-09-13T00:37:32;5.55;;;2.78;;
49824;SDS011;35714;55.708;37.478;2022-09-13T00:39:59;5.55;;;2.92;;
49824;SDS011;35714;55.708;37.478;2022-09-13T00:42:25;6.20;;;3.00;;
49824;SDS011;35714;55.708;37.478;2022-09-13T00:44:59;5.07;;;3.08;;
49824;SDS011;35714;55.708;37.478;2022-09-13T00:48:07;5.45;;;3.10;;
49824;SDS011;35714;55.708;37.478;2022-09-13T00:52:42;7.10;;;3.05;;
49824;SDS011;35714;55.708;37.478;2022-09-13T00:55:20;6.18;;;3.17;;
49824;SDS011;35714;55.708;37.478;2022-09-13T00:57:52;6.35;;;2.92;;
49824;SDS011;35714;55.708;37.478;2022-09-13T01:00:23;5.97;;;3.15;;
49824;SDS011;35714;55.708;37.478;2022-09-13T01:02:50;6.43;;;2.90;;
49824;SDS011;35714;55.708;37.478;2022-09-13T01:05:21;6.28;;;3.00;;
49824;SDS011;35714;55.708;37.478;2022-09-13T01:07:50;5.40;;;2.65;;
49824;SDS011;35714;55.708;37.478;2022-09-13T01:10:16;8.98;;;2.75;;
49824;SDS011;35714;55.708;37.478;2022-09-13T01:15:22;5.82;;;3.00;;
49824;SDS011;35714;55.708;37.478;2022-09-13T01:17:48;7.78;;;3.42;;
49824;SDS011;35714;55.708;37.478;2022-09-13T01:20:16;5.57;;;3.03;;
49824;SDS011;35714;55.708;37.478;2022-09-13T01:33:43;6.22;;;3.90;;
49824;SDS011;35714;55.708;37.478;2022-09-13T01:39:05;6.70;;;3.67;;
49824;SDS011;35714;55.708;37.478;2022-09-13T01:51:59;6.07;;;3.08;;
49824;SDS011;35714;55.708;37.478;2022-09-13T01:59:47;7.55;;;3.22;;
49824;SDS011;35714;55.708;37.478;2022-09-13T02:03:00;7.93;;;3.28;;
49824;SDS011;35714;55.708;37.478;2022-09-13T02:05:30;5.53;;;3.10;;
49824;SDS011;35714;55.708;37.478;2022-09-13T02:08:16;4.68;;;2.70;;
49824;SDS011;35714;55.708;37.478;2022-09-13T02:10:45;7.65;;;3.58;;
49824;SDS011;35714;55.708;37.478;2022-09-13T02:13:17;4.72;;;2.70;;
49824;SDS011;35714;55.708;37.478;2022-09-13T02:15:48;5.45;;;3.08;;
49824;SDS011;35714;55.708;37.478;2022-09-13T02:18:21;4.93;;;2.92;;
49824;SDS011;35714;55.708;37.478;2022-09-13T02:20:57;6.20;;;3.03;;
49824;SDS011;35714;55.708;37.478;2022-09-13T02:23:37;5.60;;;3.00;;
49824;SDS011;35714;55.708;37.478;2022-09-13T02:26:15;6.63;;;3.88;;
49824;SDS011;35714;55.708;37.478;2022-09-13T02:28:46;5.70;;;2.95;;
49824;SDS011;35714;55.708;37.478;2022-09-13T02:31:16;7.93;;;3.85;;
49824;SDS011;35714;55.708;37.478;2022-09-13T02:33:48;6.78;;;3.33;;
49824;SDS011;35714;55.708;37.478;2022-09-13T02:36:22;7.63;;;3.70;;
49824;SDS011;35714;55.708;37.478;2022-09-13T02:39:00;9.32;;;4.28;;
49824;SDS011;35714;55.708;37.478;2022-09-13T02:44:27;7.53;;;4.47;;
49824;SDS011;35714;55.708;37.478;2022-09-13T02:47:09;7.25;;;4.25;;
49824;SDS011;35714;55.708;37.478;2022-09-13T02:52:52;11.75;;;4.55;;
49824;SDS011;35714;55.708;37.478;2022-09-13T03:00:41;8.70;;;3.75;;
49824;SDS011;35714;55.708;37.478;2022-09-13T03:03:08;9.30;;;4.32;;
49824;SDS011;35714;55.708;37.478;2022-09-13T03:05:36;6.80;;;3.72;;
49824;SDS011;35714;55.708;37.478;2022-09-13T03:08:02;5.72;;;3.75;;
49824;SDS011;35714;55.708;37.478;2022-09-13T03:10:31;7.95;;;3.13;;
49824;SDS011;35714;55.708;37.478;2022-09-13T03:13:27;7.22;;;3.72;;
49824;SDS011;35714;55.708;37.478;2022-09-13T03:18:51;6.70;;;3.63;;
49824;SDS011;35714;55.708;37.478;2022-09-13T03:30:06;7.75;;;3.50;;
49824;SDS011;35714;55.708;37.478;2022-09-13T03:32:34;7.07;;;4.10;;
49824;SDS011;35714;55.708;37.478;2022-09-13T03:35:15;6.75;;;3.80;;
49824;SDS011;35714;55.708;37.478;2022-09-13T03:40:43;9.57;;;4.05;;
49824;SDS011;35714;55.708;37.478;2022-09-13T03:45:52;7.63;;;4.28;;
49824;SDS011;35714;55.708;37.478;2022-09-13T03:48:21;9.23;;;4.10;;
49824;SDS011;35714;55.708;37.478;2022-09-13T03:50:48;7.05;;;4.28;;
49824;SDS011;35714;55.708;37.478;2022-09-13T03:53:17;7.28;;;4.30;;
49824;SDS011;35714;55.708;37.478;2022-09-13T03:55:47;11.45;;;4.75;;
49824;SDS011;35714;55.708;37.478;2022-09-13T03:58:17;7.80;;;4.72;;
49824;SDS011;35714;55.708;37.478;2022-09-13T04:00:45;9.30;;;4.00;;
49824;SDS011;35714;55.708;37.478;2022-09-13T04:03:11;6.82;;;4.18;;
49824;SDS011;35714;55.708;37.478;2022-09-13T04:05:37;10.82;;;3.97;;
49824;SDS011;35714;55.708;37.478;2022-09-13T04:08:03;9.55;;;5.03;;
49824;SDS011;35714;55.708;37.478;2022-09-13T04:10:32;8.52;;;4.40;;
49824;SDS011;35714;55.708;37.478;2022-09-13T04:12:58;9.23;;;3.97;;
49824;SDS011;35714;55.708;37.478;2022-09-13T04:15:27;6.97;;;4.43;;
49824;SDS011;35714;55.708;37.478;2022-09-13T04:17:55;7.32;;;3.65;;
49824;SDS011;35714;55.708;37.478;2022-09-13T04:20:21;7.28;;;3.83;;
49824;SDS011;35714;55.708;37.478;2022-09-13T04:22:49;9.15;;;4.63;;
49824;SDS011;35714;55.708;37.478;2022-09-13T04:25:16;8.70;;;4.13;;
49824;SDS011;35714;55.708;37.478;2022-09-13T04:27:42;7.82;;;4.50;;
49824;SDS011;35714;55.708;37.478;2022-09-13T04:30:08;7.78;;;4.47;;
49824;SDS011;35714;55.708;37.478;2022-09-13T04:32:34;8.68;;;4.45;;
49824;SDS011;35714;55.708;37.478;2022-09-13T04:34:59;8.35;;;3.95;;
49824;SDS011;35714;55.708;37.478;2022-09-13T04:37:25;8.82;;;4.72;;
49824;SDS011;35714;55.708;37.478;2022-09-13T04:39:51;6.50;;;4.05;;
49824;SDS011;35714;55.708;37.478;2022-09-13T04:42:17;7.65;;;4.63;;
49824;SDS011;35714;55.708;37.478;2022-09-13T04:44:44;7.93;;;4.32;;
49824;SDS011;35714;55.708;37.478;2022-09-13T04:47:10;9.77;;;4.47;;
49824;SDS011;35714;55.708;37.478;2022-09-13T04:49:36;6.70;;;3.83;;
49824;SDS011;35714;55.708;37.478;2022-09-13T04:52:02;8.35;;;4.35;;
49824;SDS011;35714;55.708;37.478;2022-09-13T04:54:27;7.75;;;4.40;;
49824;SDS011;35714;55.708;37.478;2022-09-13T04:56:53;10.35;;;4.72;;
49824;SDS011;35714;55.708;37.478;2022-09-13T04:59:19;8.65;;;4.50;;
49824;SDS011;35714;55.708;37.478;2022-09-13T05:01:45;9.43;;;3.92;;
49824;SDS011;35714;55.708;37.478;2022-09-13T05:04:10;10.45;;;4.25;;
49824;SDS011;35714;55.708;37.478;2022-09-13T05:06:36;8.35;;;4.15;;
49824;SDS011;35714;55.708;37.478;2022-09-13T05:09:02;10.73;;;4.57;;
49824;SDS011;35714;55.708;37.478;2022-09-13T05:11:28;8.18;;;4.13;;
49824;SDS011;35714;55.708;37.478;2022-09-13T05:13:55;7.82;;;4.13;;
49824;SDS011;35714;55.708;37.478;2022-09-13T05:16:25;9.98;;;4.80;;
49824;SDS011;35714;55.708;37.478;2022-09-13T05:18:53;7.82;;;4.40;;
49824;SDS011;35714;55.708;37.478;2022-09-13T05:21:19;8.75;;;4.80;;
49824;SDS011;35714;55.708;37.478;2022-09-13T05:23:49;8.27;;;3.70;;
49824;SDS011;35714;55.708;37.478;2022-09-13T05:26:16;12.88;;;4.80;;
49824;SDS011;35714;55.708;37.478;2022-09-13T05:28:42;9.98;;;5.10;;
49824;SDS011;35714;55.708;37.478;2022-09-13T05:31:12;11.30;;;5.07;;
49824;SDS011;35714;55.708;37.478;2022-09-13T05:33:43;10.90;;;5.03;;
49824;SDS011;35714;55.708;37.478;2022-09-13T05:36:10;11.43;;;4.20;;
49824;SDS011;35714;55.708;37.478;2022-09-13T05:38:36;9.57;;;5.03;;
49824;SDS011;35714;55.708;37.478;2022-09-13T05:41:03;9.00;;;4.50;;
49824;SDS011;35714;55.708;37.478;2022-09-13T05:43:34;10.63;;;4.57;;
49824;SDS011;35714;55.708;37.478;2022-09-13T05:46:07;9.15;;;4.43;;
49824;SDS011;35714;55.708;37.478;2022-09-13T05:48:38;9.05;;;4.90;;
49824;SDS011;35714;55.708;37.478;2022-09-13T05:51:08;8.30;;;4.38;;
49824;SDS011;35714;55.708;37.478;2022-09-13T05:53:42;10.13;;;4.68;;
49824;SDS011;35714;55.708;37.478;2022-09-13T05:56:18;8.10;;;4.65;;
49824;SDS011;35714;55.708;37.478;2022-09-13T05:58:47;8.50;;;4.72;;
49824;SDS011;35714;55.708;37.478;2022-09-13T06:01:15;11.43;;;4.90;;
49824;SDS011;35714;55.708;37.478;2022-09-13T06:03:51;8.23;;;4.82;;
49824;SDS011;35714;55.708;37.478;2022-09-13T06:06:19;7.20;;;4.07;;
49824;SDS011;35714;55.708;37.478;2022-09-13T06:08:45;8.70;;;4.78;;
49824;SDS011;35714;55.708;37.478;2022-09-13T06:11:12;10.35;;;4.53;;
49824;SDS011;35714;55.708;37.478;2022-09-13T06:13:38;11.18;;;4.32;;
49824;SDS011;35714;55.708;37.478;2022-09-13T06:16:05;10.18;;;4.22;;
49824;SDS011;35714;55.708;37.478;2022-09-13T06:18:33;9.35;;;4.72;;
49824;SDS011;35714;55.708;37.478;2022-09-13T06:23:27;9.00;;;4.68;;
49824;SDS011;35714;55.708;37.478;2022-09-13T06:26:03;11.35;;;4.95;;
49824;SDS011;35714;55.708;37.478;2022-09-13T06:28:33;10.68;;;5.38;;
49824;SDS011;35714;55.708;37.478;2022-09-13T06:31:03;7.53;;;4.78;;
49824;SDS011;35714;55.708;37.478;2022-09-13T06:33:32;11.35;;;5.15;;
49824;SDS011;35714;55.708;37.478;2022-09-13T06:35:59;9.15;;;4.72;;
49824;SDS011;35714;55.708;37.478;2022-09-13T06:38:26;8.60;;;3.60;;
49824;SDS011;35714;55.708;37.478;2022-09-13T06:41:26;11.77;;;4.78;;
49824;SDS011;35714;55.708;37.478;2022-09-13T06:43:51;12.65;;;4.32;;
49824;SDS011;35714;55.708;37.478;2022-09-13T06:46:18;11.32;;;3.90;;
49824;SDS011;35714;55.708;37.478;2022-09-13T06:48:45;13.48;;;5.00;;
49824;SDS011;35714;55.708;37.478;2022-09-13T06:51:13;12.25;;;4.03;;
49824;SDS011;35714;55.708;37.478;2022-09-13T06:53:41;15.43;;;4.43;;
49824;SDS011;35714;55.708;37.478;2022-09-13T06:56:14;9.82;;;4.47;;
49824;SDS011;35714;55.708;37.478;2022-09-13T06:58:42;9.70;;;4.97;;
49824;SDS011;35714;55.708;37.478;2022-09-13T07:03:42;9.48;;;4.53;;
49824;SDS011;35714;55.708;37.478;2022-09-13T07:06:09;17.35;;;5.65;;
49824;SDS011;35714;55.708;37.478;2022-09-13T07:08:40;8.15;;;4.25;;
49824;SDS011;35714;55.708;37.478;2022-09-13T07:11:07;8.13;;;4.43;;
49824;SDS011;35714;55.708;37.478;2022-09-13T07:13:34;11.15;;;5.03;;
49824;SDS011;35714;55.708;37.478;2022-09-13T07:16:04;12.75;;;4.53;;
49824;SDS011;35714;55.708;37.478;2022-09-13T07:18:31;9.80;;;3.70;;
49824;SDS011;35714;55.708;37.478;2022-09-13T07:20:58;10.45;;;4.13;;
49824;SDS011;35714;55.708;37.478;2022-09-13T07:23:25;8.27;;;4.40;;
49824;SDS011;35714;55.708;37.478;2022-09-13T07:25:55;11.50;;;4.93;;
49824;SDS011;35714;55.708;37.478;2022-09-13T07:28:30;9.30;;;4.72;;
49824;SDS011;35714;55.708;37.478;2022-09-13T07:33:35;11.48;;;5.05;;
49824;SDS011;35714;55.708;37.478;2022-09-13T07:36:20;12.05;;;4.30;;
49824;SDS011;35714;55.708;37.478;2022-09-13T07:38:46;7.93;;;4.03;;
49824;SDS011;35714;55.708;37.478;2022-09-13T07:41:15;8.30;;;5.05;;
49824;SDS011;35714;55.708;37.478;2022-09-13T07:43:44;9.13;;;4.25;;
49824;SDS011;35714;55.708;37.478;2022-09-13T07:46:11;13.02;;;3.28;;
49824;SDS011;35714;55.708;37.478;2022-09-13T07:48:39;13.82;;;5.55;;
49824;SDS011;35714;55.708;37.478;2022-09-13T07:53:34;9.80;;;3.85;;
49824;SDS011;35714;55.708;37.478;2022-09-13T07:56:04;8.45;;;4.22;;
49824;SDS011;35714;55.708;37.478;2022-09-13T07:58:32;7.50;;;3.88;;
49824;SDS011;35714;55.708;37.478;2022-09-13T08:01:03;10.15;;;4.13;;
49824;SDS011;35714;55.708;37.478;2022-09-13T08:03:32;8.90;;;3.85;;
49824;SDS011;35714;55.708;37.478;2022-09-13T08:05:59;5.47;;;3.15;;
49824;SDS011;35714;55.708;37.478;2022-09-13T08:08:25;10.18;;;3.33;;
49824;SDS011;35714;55.708;37.478;2022-09-13T08:10:52;8.32;;;3.85;;
49824;SDS011;35714;55.708;37.478;2022-09-13T08:13:17;6.93;;;2.72;;
49824;SDS011;35714;55.708;37.478;2022-09-13T08:15:43;6.53;;;2.95;;
49824;SDS011;35714;55.708;37.478;2022-09-13T08:18:09;7.80;;;2.90;;
49824;SDS011;35714;55.708;37.478;2022-09-13T08:20:35;10.02;;;3.58;;
49824;SDS011;35714;55.708;37.478;2022-09-13T08:23:02;5.97;;;3.20;;
49824;SDS011;35714;55.708;37.478;2022-09-13T08:25:33;7.60;;;3.40;;
49824;SDS011;35714;55.708;37.478;2022-09-13T08:28:05;14.45;;;4.97;;
49824;SDS011;35714;55.708;37.478;2022-09-13T08:30:32;9.43;;;3.40;;
49824;SDS011;35714;55.708;37.478;2022-09-13T08:33:02;7.03;;;3.53;;
49824;SDS011;35714;55.708;37.478;2022-09-13T08:35:29;9.18;;;2.97;;
49824;SDS011;35714;55.708;37.478;2022-09-13T08:37:56;6.00;;;3.60;;
49824;SDS011;35714;55.708;37.478;2022-09-13T08:40:23;7.63;;;3.13;;
49824;SDS011;35714;55.708;37.478;2022-09-13T08:45:23;11.35;;;4.75;;
49824;SDS011;35714;55.708;37.478;2022-09-13T08:47:52;7.43;;;3.33;;
49824;SDS011;35714;55.708;37.478;2022-09-13T08:50:25;6.93;;;3.00;;
49824;SDS011;35714;55.708;37.478;2022-09-13T08:53:03;9.88;;;2.65;;
49824;SDS011;35714;55.708;37.478;2022-09-13T08:58:32;4.63;;;2.35;;
49824;SDS011;35714;55.708;37.478;2022-09-13T09:01:18;5.28;;;2.25;;
49824;SDS011;35714;55.708;37.478;2022-09-13T09:06:51;11.07;;;2.20;;
49824;SDS011;35714;55.708;37.478;2022-09-13T09:09:26;9.23;;;2.53;;
49824;SDS011;35714;55.708;37.478;2022-09-13T09:12:00;7.75;;;2.58;;
49824;SDS011;35714;55.708;37.478;2022-09-13T09:15:32;6.70;;;2.65;;
49824;SDS011;35714;55.708;37.478;2022-09-13T09:20:47;8.00;;;2.35;;
49824;SDS011;35714;55.708;37.478;2022-09-13T09:25:49;5.10;;;2.03;;
49824;SDS011;35714;55.708;37.478;2022-09-13T09:28:19;7.90;;;2.17;;
49824;SDS011;35714;55.708;37.478;2022-09-13T09:34:06;8.52;;;2.70;;
49824;SDS011;35714;55.708;37.478;2022-09-13T09:39:03;3.72;;;1.45;;
49824;SDS011;35714;55.708;37.478;2022-09-13T09:41:30;5.70;;;1.52;;
49824;SDS011;35714;55.708;37.478;2022-09-13T09:44:05;3.33;;;1.48;;
49824;SDS011;35714;55.708;37.478;2022-09-13T09:46:44;4.35;;;1.52;;
49824;SDS011;35714;55.708;37.478;2022-09-13T09:52:22;7.47;;;1.30;;
49824;SDS011;35714;55.708;37.478;2022-09-13T09:54:55;3.88;;;1.42;;
49824;SDS011;35714;55.708;37.478;2022-09-13T09:57:48;3.20;;;1.40;;
49824;SDS011;35714;55.708;37.478;2022-09-13T10:00:23;4.07;;;1.17;;
49824;SDS011;35714;55.708;37.478;2022-09-13T10:02:51;5.75;;;1.48;;
49824;SDS011;35714;55.708;37.478;2022-09-13T10:05:22;5.43;;;1.40;;
49824;SDS011;35714;55.708;37.478;2022-09-13T10:07:52;3.75;;;1.30;;
49824;SDS011;35714;55.708;37.478;2022-09-13T10:12:53;3.83;;;1.30;;
49824;SDS011;35714;55.708;37.478;2022-09-13T10:15:25;4.88;;;1.20;;
49824;SDS011;35714;55.708;37.478;2022-09-13T10:18:12;7.40;;;1.45;;
49824;SDS011;35714;55.708;37.478;2022-09-13T10:20:41;4.55;;;1.25;;
49824;SDS011;35714;55.708;37.478;2022-09-13T10:25:41;5.65;;;1.48;;
49824;SDS011;35714;55.708;37.478;2022-09-13T10:28:15;2.17;;;1.02;;
49824;SDS011;35714;55.708;37.478;2022-09-13T10:30:48;8.68;;;1.05;;
49824;SDS011;35714;55.708;37.478;2022-09-13T10:33:28;5.18;;;1.00;;
49824;SDS011;35714;55.708;37.478;2022-09-13T10:36:00;1.90;;;0.90;;
49824;SDS011;35714;55.708;37.478;2022-09-13T10:38:35;4.20;;;1.40;;
49824;SDS011;35714;55.708;37.478;2022-09-13T10:41:04;1.90;;;0.80;;
49824;SDS011;35714;55.708;37.478;2022-09-13T10:43:33;3.10;;;1.10;;
49824;SDS011;35714;55.708;37.478;2022-09-13T10:46:00;5.03;;;1.10;;
49824;SDS011;35714;55.708;37.478;2022-09-13T10:48:28;5.47;;;1.00;;
49824;SDS011;35714;55.708;37.478;2022-09-13T10:51:03;4.55;;;1.08;;
49824;SDS011;35714;55.708;37.478;2022-09-13T10:53:42;3.20;;;0.80;;
49824;SDS011;35714;55.708;37.478;2022-09-13T10:56:21;5.35;;;1.13;;
49824;SDS011;35714;55.708;37.478;2022-09-13T10:58:49;4.03;;;1.20;;
49824;SDS011;35714;55.708;37.478;2022-09-13T11:29:36;3.42;;;1.48;;
49824;SDS011;35714;55.708;37.478;2022-09-13T11:54:34;5.03;;;1.35;;
49824;SDS011;35714;55.708;37.478;2022-09-13T11:57:10;3.55;;;1.10;;
49824;SDS011;35714;55.708;37.478;2022-09-13T12:00:18;7.07;;;1.35;;
49824;SDS011;35714;55.708;37.478;2022-09-13T12:02:58;2.75;;;1.15;;
49824;SDS011;35714;55.708;37.478;2022-09-13T12:05:29;6.63;;;1.50;;
49824;SDS011;35714;55.708;37.478;2022-09-13T12:08:16;2.85;;;1.10;;
49824;SDS011;35714;55.708;37.478;2022-09-13T12:13:39;8.65;;;1.55;;
49824;SDS011;35714;55.708;37.478;2022-09-13T12:16:11;3.25;;;1.35;;
49824;SDS011;35714;55.708;37.478;2022-09-13T12:18:48;10.35;;;1.33;;
49824;SDS011;35714;55.708;37.478;2022-09-13T12:21:21;5.60;;;1.50;;
49824;SDS011;35714;55.708;37.478;2022-09-13T12:26:31;6.32;;;1.58;;
49824;SDS011;35714;55.708;37.478;2022-09-13T12:32:05;3.90;;;0.80;;
49824;SDS011;35714;55.708;37.478;2022-09-13T12:43:12;4.80;;;1.20;;
49824;SDS011;35714;55.708;37.478;2022-09-13T12:49:01;12.18;;;1.70;;
49824;SDS011;35714;55.708;37.478;2022-09-13T12:54:32;4.93;;;1.50;;
49824;SDS011;35714;55.708;37.478;2022-09-13T13:00:25;7.43;;;1.40;;
49824;SDS011;35714;55.708;37.478;2022-09-13T13:05:23;8.20;;;1.10;;
49824;SDS011;35714;55.708;37.478;2022-09-13T13:08:03;5.03;;;1.48;;
49824;SDS011;35714;55.708;37.478;2022-09-13T13:10:35;6.03;;;1.27;;
49824;SDS011;35714;55.708;37.478;2022-09-13T13:13:22;3.70;;;1.10;;
49824;SDS011;35714;55.708;37.478;2022-09-13T13:15:59;2.58;;;1.05;;
49824;SDS011;35714;55.708;37.478;2022-09-13T13:18:28;7.10;;;1.02;;
49824;SDS011;35714;55.708;37.478;2022-09-13T13:26:52;4.70;;;1.23;;
49824;SDS011;35714;55.708;37.478;2022-09-13T13:29:21;4.93;;;1.10;;
49824;SDS011;35714;55.708;37.478;2022-09-13T13:34:29;9.38;;;2.72;;
49824;SDS011;35714;55.708;37.478;2022-09-13T13:39:34;5.45;;;1.73;;
49824;SDS011;35714;55.708;37.478;2022-09-13T13:44:55;6.10;;;1.52;;
49824;SDS011;35714;55.708;37.478;2022-09-13T13:52:38;6.00;;;2.08;;
49824;SDS011;35714;55.708;37.478;2022-09-13T13:58:25;4.50;;;1.38;;
49824;SDS011;35714;55.708;37.478;2022-09-13T14:01:00;3.55;;;1.08;;
49824;SDS011;35714;55.708;37.478;2022-09-13T14:03:55;4.70;;;1.20;;
49824;SDS011;35714;55.708;37.478;2022-09-13T14:06:32;7.05;;;1.92;;
49824;SDS011;35714;55.708;37.478;2022-09-13T14:15:01;5.35;;;1.40;;
49824;SDS011;35714;55.708;37.478;2022-09-13T14:20:12;7.15;;;1.83;;
49824;SDS011;35714;55.708;37.478;2022-09-13T14:22:41;4.88;;;1.30;;
49824;SDS011;35714;55.708;37.478;2022-09-13T14:25:17;5.38;;;1.85;;
49824;SDS011;35714;55.708;37.478;2022-09-13T14:27:48;4.03;;;1.65;;
49824;SDS011;35714;55.708;37.478;2022-09-13T14:33:02;5.82;;;1.40;;
49824;SDS011;35714;55.708;37.478;2022-09-13T14:35:34;8.98;;;1.73;;
49824;SDS011;35714;55.708;37.478;2022-09-13T14:40:52;5.90;;;2.00;;
49824;SDS011;35714;55.708;37.478;2022-09-13T14:43:24;3.92;;;1.55;;
49824;SDS011;35714;55.708;37.478;2022-09-13T14:45:52;2.95;;;1.40;;
49824;SDS011;35714;55.708;37.478;2022-09-13T14:48:27;3.47;;;1.00;;
49824;SDS011;35714;55.708;37.478;2022-09-13T14:51:03;9.93;;;1.75;;
49824;SDS011;35714;55.708;37.478;2022-09-13T14:53:40;8.10;;;2.50;;
49824;SDS011;35714;55.708;37.478;2022-09-13T14:56:14;5.00;;;1.27;;
49824;SDS011;35714;55.708;37.478;2022-09-13T15:01:15;4.45;;;1.00;;
49824;SDS011;35714;55.708;37.478;2022-09-13T15:03:45;3.05;;;1.15;;
49824;SDS011;35714;55.708;37.478;2022-09-13T15:06:23;9.98;;;1.30;;
49824;SDS011;35714;55.708;37.478;2022-09-13T15:08:51;6.00;;;1.50;;
49824;SDS011;35714;55.708;37.478;2022-09-13T15:11:29;4.85;;;1.60;;
49824;SDS011;35714;55.708;37.478;2022-09-13T15:14:08;5.00;;;1.33;;
49824;SDS011;35714;55.708;37.478;2022-09-13T15:19:40;4.97;;;1.42;;
49824;SDS011;35714;55.708;37.478;2022-09-13T15:22:13;3.13;;;1.05;;
49824;SDS011;35714;55.708;37.478;2022-09-13T15:24:42;5.82;;;1.80;;
49824;SDS011;35714;55.708;37.478;2022-09-13T15:27:26;3.85;;;1.35;;
49824;SDS011;35714;55.708;37.478;2022-09-13T15:29:58;4.40;;;1.20;;
49824;SDS011;35714;55.708;37.478;2022-09-13T15:32:37;3.90;;;1.20;;
49824;SDS011;35714;55.708;37.478;2022-09-13T15:35:16;5.72;;;1.33;;
49824;SDS011;35714;55.708;37.478;2022-09-13T15:37:56;5.05;;;1.02;;
49824;SDS011;35714;55.708;37.478;2022-09-13T15:40:28;3.13;;;1.33;;
49824;SDS011;35714;55.708;37.478;2022-09-13T15:43:05;5.05;;;1.75;;
49824;SDS011;35714;55.708;37.478;2022-09-13T15:45:31;5.65;;;1.38;;
49824;SDS011;35714;55.708;37.478;2022-09-13T15:47:57;3.03;;;0.90;;
49824;SDS011;35714;55.708;37.478;2022-09-13T15:50:26;4.47;;;1.08;;
49824;SDS011;35714;55.708;37.478;2022-09-13T15:52:56;6.45;;;2.95;;
49824;SDS011;35714;55.708;37.478;2022-09-13T15:55:23;7.07;;;1.88;;
49824;SDS011;35714;55.708;37.478;2022-09-13T15:57:51;4.43;;;1.52;;
49824;SDS011;35714;55.708;37.478;2022-09-13T16:00:21;5.88;;;1.40;;
49824;SDS011;35714;55.708;37.478;2022-09-13T16:02:49;2.55;;;0.95;;
49824;SDS011;35714;55.708;37.478;2022-09-13T16:05:16;3.70;;;1.15;;
49824;SDS011;35714;55.708;37.478;2022-09-13T16:07:42;4.35;;;1.40;;
49824;SDS011;35714;55.708;37.478;2022-09-13T16:10:13;4.45;;;1.70;;
49824;SDS011;35714;55.708;37.478;2022-09-13T16:12:41;4.03;;;1.45;;
49824;SDS011;35714;55.708;37.478;2022-09-13T16:15:07;9.52;;;1.70;;
49824;SDS011;35714;55.708;37.478;2022-09-13T16:17:33;3.58;;;1.42;;
49824;SDS011;35714;55.708;37.478;2022-09-13T16:19:59;6.80;;;2.95;;
49824;SDS011;35714;55.708;37.478;2022-09-13T16:22:25;8.20;;;2.15;;
49824;SDS011;35714;55.708;37.478;2022-09-13T16:24:51;4.95;;;1.75;;
49824;SDS011;35714;55.708;37.478;2022-09-13T16:27:17;5.32;;;1.48;;
49824;SDS011;35714;55.708;37.478;2022-09-13T16:29:45;9.10;;;1.50;;
49824;SDS011;35714;55.708;37.478;2022-09-13T16:32:11;5.80;;;1.55;;
49824;SDS011;35714;55.708;37.478;2022-09-13T16:34:37;4.18;;;2.35;;
49824;SDS011;35714;55.708;37.478;2022-09-13T16:37:03;6.97;;;1.45;;
49824;SDS011;35714;55.708;37.478;2022-09-13T16:39:29;6.05;;;1.50;;
49824;SDS011;35714;55.708;37.478;2022-09-13T16:41:55;6.15;;;1.40;;
49824;SDS011;35714;55.708;37.478;2022-09-13T16:44:21;4.97;;;1.50;;
49824;SDS011;35714;55.708;37.478;2022-09-13T16:46:47;4.82;;;1.55;;
49824;SDS011;35714;55.708;37.478;2022-09-13T16:49:13;5.22;;;1.63;;
49824;SDS011;35714;55.708;37.478;2022-09-13T16:51:38;4.32;;;1.30;;
49824;SDS011;35714;55.708;37.478;2022-09-13T16:54:04;4.93;;;1.73;;
49824;SDS011;35714;55.708;37.478;2022-09-13T16:56:30;3.88;;;1.75;;
49824;SDS011;35714;55.708;37.478;2022-09-13T16:58:56;5.40;;;2.05;;
49824;SDS011;35714;55.708;37.478;2022-09-13T17:01:23;5.55;;;2.30;;
49824;SDS011;35714;55.708;37.478;2022-09-13T17:03:51;3.95;;;1.60;;
49824;SDS011;35714;55.708;37.478;2022-09-13T17:06:19;4.20;;;1.73;;
49824;SDS011;35714;55.708;37.478;2022-09-13T17:08:47;7.03;;;1.65;;
49824;SDS011;35714;55.708;37.478;2022-09-13T17:11:17;3.70;;;1.60;;
49824;SDS011;35714;55.708;37.478;2022-09-13T17:13:45;3.22;;;1.17;;
49824;SDS011;35714;55.708;37.478;2022-09-13T17:16:28;4.03;;;1.67;;
49824;SDS011;35714;55.708;37.478;2022-09-13T17:18:58;4.28;;;1.85;;
49824;SDS011;35714;55.708;37.478;2022-09-13T17:21:29;8.45;;;2.08;;
49824;SDS011;35714;55.708;37.478;2022-09-13T17:23:55;4.63;;;2.42;;
49824;SDS011;35714;55.708;37.478;2022-09-13T17:26:21;4.63;;;2.00;;
49824;SDS011;35714;55.708;37.478;2022-09-13T17:28:47;3.97;;;1.90;;
49824;SDS011;35714;55.708;37.478;2022-09-13T17:31:14;3.53;;;1.70;;
49824;SDS011;35714;55.708;37.478;2022-09-13T17:33:40;3.55;;;1.80;;
49824;SDS011;35714;55.708;37.478;2022-09-13T17:36:07;7.78;;;2.30;;
49824;SDS011;35714;55.708;37.478;2022-09-13T17:38:35;5.28;;;2.13;;
49824;SDS011;35714;55.708;37.478;2022-09-13T17:41:08;4.15;;;1.98;;
49824;SDS011;35714;55.708;37.478;2022-09-13T17:43:38;5.07;;;1.80;;
49824;SDS011;35714;55.708;37.478;2022-09-13T17:46:09;7.72;;;2.30;;
49824;SDS011;35714;55.708;37.478;2022-09-13T17:48:50;6.78;;;2.38;;
49824;SDS011;35714;55.708;37.478;2022-09-13T17:51:18;4.97;;;1.50;;
49824;SDS011;35714;55.708;37.478;2022-09-13T17:53:47;5.78;;;2.10;;
49824;SDS011;35714;55.708;37.478;2022-09-13T17:56:15;4.43;;;2.38;;
49824;SDS011;35714;55.708;37.478;2022-09-13T17:58:45;4.60;;;2.10;;
49824;SDS011;35714;55.708;37.478;2022-09-13T18:01:11;4.90;;;2.15;;
49824;SDS011;35714;55.708;37.478;2022-09-13T18:03:37;5.65;;;2.53;;
49824;SDS011;35714;55.708;37.478;2022-09-13T18:06:04;4.07;;;2.30;;
49824;SDS011;35714;55.708;37.478;2022-09-13T18:08:32;5.72;;;2.10;;
49824;SDS011;35714;55.708;37.478;2022-09-13T18:11:01;6.38;;;2.83;;
49824;SDS011;35714;55.708;37.478;2022-09-13T18:13:31;6.57;;;2.35;;
49824;SDS011;35714;55.708;37.478;2022-09-13T18:15:59;8.25;;;2.65;;
49824;SDS011;35714;55.708;37.478;2022-09-13T18:18:32;4.32;;;2.00;;
49824;SDS011;35714;55.708;37.478;2022-09-13T18:20:59;5.32;;;2.13;;
49824;SDS011;35714;55.708;37.478;2022-09-13T18:23:25;4.30;;;2.15;;
49824;SDS011;35714;55.708;37.478;2022-09-13T18:26:11;4.65;;;1.85;;
49824;SDS011;35714;55.708;37.478;2022-09-13T18:28:39;5.80;;;2.50;;
49824;SDS011;35714;55.708;37.478;2022-09-13T18:31:08;4.68;;;1.95;;
49824;SDS011;35714;55.708;37.478;2022-09-13T18:33:37;4.35;;;2.35;;
49824;SDS011;35714;55.708;37.478;2022-09-13T18:36:04;6.65;;;2.33;;